sensor_id;sensor_type;location;lat;lon;timestamp;temperature;humidity
35746;DHT22;21870;42.812;74.628;2022-11-20T00:01:10;8.00;99.90
35746;DHT22;21870;42.812;74.628;2022-11-20T00:03:37;8.10;99.90
35746;DHT22;21870;42.812;74.628;2022-11-20T00:06:05;8.20;99.90
35746;DHT22;21870;42.812;74.628;2022-11-20T00:08:32;8.20;99.90
35746;DHT22;21870;42.812;74.628;2022-11-20T00:11:06;8.20;99.90
35746;DHT22;21870;42.812;74.628;2022-11-20T00:13:33;8.20;99.90
35746;DHT22;21870;42.812;74.628;2022-11-20T00:16:01;8.20;99.90
35746;DHT22;21870;42.812;74.628;2022-11-20T00:18:28;8.30;99.90
35746;DHT22;21870;42.812;74.628;2022-11-20T00:21:01;8.30;99.90
35746;DHT22;21870;42.812;74.628;2022-11-20T00:23:27;8.30;99.90
35746;DHT22;21870;42.812;74.628;2022-11-20T00:25:53;8.30;99.90
35746;DHT22;21870;42.812;74.628;2022-11-20T00:28:19;8.40;99.90
35746;DHT22;21870;42.812;74.628;2022-11-20T00:30:45;8.40;99.90
35746;DHT22;21870;42.812;74.628;2022-11-20T00:33:11;8.40;99.90
35746;DHT22;21870;42.812;74.628;2022-11-20T00:35:37;8.40;99.90
35746;DHT22;21870;42.812;74.628;2022-11-20T00:38:03;8.40;99.90
35746;DHT22;21870;42.812;74.628;2022-11-20T00:40:29;8.40;99.90
35746;DHT22;21870;42.812;74.628;2022-11-20T00:42:55;8.30;99.90
35746;DHT22;21870;42.812;74.628;2022-11-20T00:45:22;8.30;99.90
35746;DHT22;21870;42.812;74.628;2022-11-20T00:47:48;8.20;99.90
35746;DHT22;21870;42.812;74.628;2022-11-20T00:50:14;8.30;99.90
35746;DHT22;21870;42.812;74.628;2022-11-20T00:52:40;8.40;99.90
35746;DHT22;21870;42.812;74.628;2022-11-20T00:55:06;8.30;99.90
35746;DHT22;21870;42.812;74.628;2022-11-20T00:57:32;8.40;99.90
35746;DHT22;21870;42.812;74.628;2022-11-20T00:59:58;8.40;99.90
35746;DHT22;21870;42.812;74.628;2022-11-20T01:02:24;8.50;99.90
35746;DHT22;21870;42.812;74.628;2022-11-20T01:04:50;8.50;99.90
35746;DHT22;21870;42.812;74.628;2022-11-20T01:07:19;8.50;99.90
35746;DHT22;21870;42.812;74.628;2022-11-20T01:09:45;8.50;99.90
35746;DHT22;21870;42.812;74.628;2022-11-20T01:12:11;8.50;99.90
35746;DHT22;21870;42.812;74.628;2022-11-20T01:14:38;8.50;99.90
35746;DHT22;21870;42.812;74.628;2022-11-20T01:17:04;8.50;99.90
35746;DHT22;21870;42.812;74.628;2022-11-20T01:19:30;8.50;99.90
35746;DHT22;21870;42.812;74.628;2022-11-20T01:21:56;8.60;99.90
35746;DHT22;21870;42.812;74.628;2022-11-20T01:24:22;8.50;99.90
35746;DHT22;21870;42.812;74.628;2022-11-20T01:26:50;8.50;99.90
35746;DHT22;21870;42.812;74.628;2022-11-20T01:29:23;8.50;99.90
35746;DHT22;21870;42.812;74.628;2022-11-20T01:31:50;8.50;99.90
35746;DHT22;21870;42.812;74.628;2022-11-20T01:34:19;8.50;99.90
35746;DHT22;21870;42.812;74.628;2022-11-20T01:36:49;8.60;99.90
35746;DHT22;21870;42.812;74.628;2022-11-20T01:39:20;8.60;99.90
35746;DHT22;21870;42.812;74.628;2022-11-20T01:41:48;8.70;99.90
35746;DHT22;21870;42.812;74.628;2022-11-20T01:47:34;8.70;99.90
35746;DHT22;21870;42.812;74.628;2022-11-20T01:50:16;8.80;99.90
35746;DHT22;21870;42.812;74.628;2022-11-20T01:55:31;8.80;99.90
35746;DHT22;21870;42.812;74.628;2022-11-20T01:57:59;8.80;99.90
35746;DHT22;21870;42.812;74.628;2022-11-20T02:00:25;8.90;99.90
35746;DHT22;21870;42.812;74.628;2022-11-20T02:02:55;8.90;99.90
35746;DHT22;21870;42.812;74.628;2022-11-20T02:05:27;8.90;99.90
35746;DHT22;21870;42.812;74.628;2022-11-20T02:07:56;8.90;99.90
35746;DHT22;21870;42.812;74.628;2022-11-20T02:10:23;8.80;99.90
35746;DHT22;21870;42.812;74.628;2022-11-20T02:12:49;8.90;99.90
35746;DHT22;21870;42.812;74.628;2022-11-20T02:15:34;8.90;99.90
35746;DHT22;21870;42.812;74.628;2022-11-20T02:18:00;8.90;99.90
35746;DHT22;21870;42.812;74.628;2022-11-20T02:20:27;8.90;99.90
35746;DHT22;21870;42.812;74.628;2022-11-20T02:23:12;8.90;99.90
35746;DHT22;21870;42.812;74.628;2022-11-20T02:25:39;8.80;99.90
35746;DHT22;21870;42.812;74.628;2022-11-20T02:28:06;8.80;99.90
35746;DHT22;21870;42.812;74.628;2022-11-20T02:30:32;8.80;99.90
35746;DHT22;21870;42.812;74.628;2022-11-20T02:32:59;8.80;99.90
35746;DHT22;21870;42.812;74.628;2022-11-20T02:37:56;8.80;99.90
35746;DHT22;21870;42.812;74.628;2022-11-20T02:40:23;8.80;99.90
35746;DHT22;21870;42.812;74.628;2022-11-20T02:42:55;8.90;99.90
35746;DHT22;21870;42.812;74.628;2022-11-20T02:45:22;9.00;99.90
35746;DHT22;21870;42.812;74.628;2022-11-20T02:47:49;9.00;99.90
35746;DHT22;21870;42.812;74.628;2022-11-20T02:50:15;9.00;99.90
35746;DHT22;21870;42.812;74.628;2022-11-20T02:52:41;9.10;99.90
35746;DHT22;21870;42.812;74.628;2022-11-20T02:55:07;9.10;99.90
35746;DHT22;21870;42.812;74.628;2022-11-20T02:57:34;9.10;99.90
35746;DHT22;21870;42.812;74.628;2022-11-20T03:00:00;9.20;99.90
35746;DHT22;21870;42.812;74.628;2022-11-20T03:02:30;9.20;99.90
35746;DHT22;21870;42.812;74.628;2022-11-20T03:04:56;9.20;99.90
35746;DHT22;21870;42.812;74.628;2022-11-20T03:07:22;9.30;99.90
35746;DHT22;21870;42.812;74.628;2022-11-20T03:09:48;9.30;99.90
35746;DHT22;21870;42.812;74.628;2022-11-20T03:12:14;9.30;99.90
35746;DHT22;21870;42.812;74.628;2022-11-20T03:14:41;9.30;99.90
35746;DHT22;21870;42.812;74.628;2022-11-20T03:17:07;9.30;99.90
35746;DHT22;21870;42.812;74.628;2022-11-20T03:19:33;9.40;99.90
35746;DHT22;21870;42.812;74.628;2022-11-20T03:22:00;9.40;99.90
35746;DHT22;21870;42.812;74.628;2022-11-20T03:24:26;9.50;99.90
35746;DHT22;21870;42.812;74.628;2022-11-20T03:26:52;9.50;99.90
35746;DHT22;21870;42.812;74.628;2022-11-20T03:29:18;9.50;99.90
35746;DHT22;21870;42.812;74.628;2022-11-20T03:31:44;9.50;99.90
35746;DHT22;21870;42.812;74.628;2022-11-20T03:34:11;9.50;99.90
35746;DHT22;21870;42.812;74.628;2022-11-20T03:36:42;9.50;99.90
35746;DHT22;21870;42.812;74.628;2022-11-20T03:39:09;9.50;99.90
35746;DHT22;21870;42.812;74.628;2022-11-20T03:41:40;9.50;99.90
35746;DHT22;21870;42.812;74.628;2022-11-20T03:44:08;9.50;99.90
35746;DHT22;21870;42.812;74.628;2022-11-20T03:46:34;9.50;99.90
35746;DHT22;21870;42.812;74.628;2022-11-20T03:49:01;9.60;99.90
35746;DHT22;21870;42.812;74.628;2022-11-20T03:51:29;9.50;99.90
35746;DHT22;21870;42.812;74.628;2022-11-20T03:53:58;9.50;99.90
35746;DHT22;21870;42.812;74.628;2022-11-20T03:56:30;9.60;99.90
35746;DHT22;21870;42.812;74.628;2022-11-20T03:58:57;9.60;99.90
35746;DHT22;21870;42.812;74.628;2022-11-20T04:01:26;9.80;99.90
35746;DHT22;21870;42.812;74.628;2022-11-20T04:03:53;9.90;99.90
35746;DHT22;21870;42.812;74.628;2022-11-20T04:06:25;10.10;99.90
35746;DHT22;21870;42.812;74.628;2022-11-20T04:08:51;10.20;99.90
35746;DHT22;21870;42.812;74.628;2022-11-20T04:11:24;10.30;99.90
35746;DHT22;21870;42.812;74.628;2022-11-20T04:13:58;10.40;99.90
35746;DHT22;21870;42.812;74.628;2022-11-20T04:16:26;10.50;99.90
35746;DHT22;21870;42.812;74.628;2022-11-20T04:18:58;10.80;99.90
35746;DHT22;21870;42.812;74.628;2022-11-20T04:21:25;11.20;99.90
35746;DHT22;21870;42.812;74.628;2022-11-20T04:23:52;11.50;99.90
35746;DHT22;21870;42.812;74.628;2022-11-20T04:26:19;11.80;99.90
35746;DHT22;21870;42.812;74.628;2022-11-20T04:28:48;12.00;99.90
35746;DHT22;21870;42.812;74.628;2022-11-20T04:31:21;11.90;99.90
35746;DHT22;21870;42.812;74.628;2022-11-20T04:33:47;12.10;99.90
35746;DHT22;21870;42.812;74.628;2022-11-20T04:36:25;12.30;99.90
35746;DHT22;21870;42.812;74.628;2022-11-20T04:38:53;12.30;99.90
35746;DHT22;21870;42.812;74.628;2022-11-20T04:41:21;12.40;99.90
35746;DHT22;21870;42.812;74.628;2022-11-20T04:43:52;12.50;99.90
35746;DHT22;21870;42.812;74.628;2022-11-20T04:46:20;12.80;99.90
35746;DHT22;21870;42.812;74.628;2022-11-20T04:48:47;13.10;99.90
35746;DHT22;21870;42.812;74.628;2022-11-20T04:51:13;13.50;99.90
35746;DHT22;21870;42.812;74.628;2022-11-20T04:53:39;13.50;99.90
35746;DHT22;21870;42.812;74.628;2022-11-20T04:56:07;13.60;99.90
35746;DHT22;21870;42.812;74.628;2022-11-20T04:58:34;13.90;99.90
35746;DHT22;21870;42.812;74.628;2022-11-20T05:01:03;13.90;99.90
35746;DHT22;21870;42.812;74.628;2022-11-20T05:03:30;14.10;99.90
35746;DHT22;21870;42.812;74.628;2022-11-20T05:06:00;14.40;99.90
35746;DHT22;21870;42.812;74.628;2022-11-20T05:08:27;14.70;99.90
35746;DHT22;21870;42.812;74.628;2022-11-20T05:10:53;14.90;99.90
35746;DHT22;21870;42.812;74.628;2022-11-20T05:13:19;15.00;99.90
35746;DHT22;21870;42.812;74.628;2022-11-20T05:15:45;14.90;99.90
35746;DHT22;21870;42.812;74.628;2022-11-20T05:18:11;14.70;99.90
35746;DHT22;21870;42.812;74.628;2022-11-20T05:20:37;14.50;99.90
35746;DHT22;21870;42.812;74.628;2022-11-20T05:23:03;14.70;99.90
35746;DHT22;21870;42.812;74.628;2022-11-20T05:25:29;15.00;99.90
35746;DHT22;21870;42.812;74.628;2022-11-20T05:27:55;15.20;99.90
35746;DHT22;21870;42.812;74.628;2022-11-20T05:30:21;15.10;99.90
35746;DHT22;21870;42.812;74.628;2022-11-20T05:32:47;15.10;99.90
35746;DHT22;21870;42.812;74.628;2022-11-20T05:35:13;15.00;99.90
35746;DHT22;21870;42.812;74.628;2022-11-20T05:37:39;14.90;99.90
35746;DHT22;21870;42.812;74.628;2022-11-20T05:40:06;14.90;99.90
35746;DHT22;21870;42.812;74.628;2022-11-20T05:42:32;14.90;99.90
35746;DHT22;21870;42.812;74.628;2022-11-20T05:45:03;15.00;99.90
35746;DHT22;21870;42.812;74.628;2022-11-20T05:47:33;14.90;99.90
35746;DHT22;21870;42.812;74.628;2022-11-20T05:50:01;14.90;99.90
35746;DHT22;21870;42.812;74.628;2022-11-20T05:52:30;14.90;99.90
35746;DHT22;21870;42.812;74.628;2022-11-20T05:54:56;14.80;99.90
35746;DHT22;21870;42.812;74.628;2022-11-20T05:57:22;14.70;99.90
35746;DHT22;21870;42.812;74.628;2022-11-20T05:59:49;14.80;99.90
35746;DHT22;21870;42.812;74.628;2022-11-20T06:02:15;14.80;99.90
35746;DHT22;21870;42.812;74.628;2022-11-20T06:04:41;14.90;99.90
35746;DHT22;21870;42.812;74.628;2022-11-20T06:07:07;14.80;99.90
35746;DHT22;21870;42.812;74.628;2022-11-20T06:09:34;14.70;99.90
35746;DHT22;21870;42.812;74.628;2022-11-20T06:12:00;14.80;99.90
35746;DHT22;21870;42.812;74.628;2022-11-20T06:14:26;14.80;99.90
35746;DHT22;21870;42.812;74.628;2022-11-20T06:16:52;14.90;99.90
35746;DHT22;21870;42.812;74.628;2022-11-20T06:19:18;14.90;99.90
35746;DHT22;21870;42.812;74.628;2022-11-20T06:21:44;15.00;99.90
35746;DHT22;21870;42.812;74.628;2022-11-20T06:24:10;15.10;99.90
35746;DHT22;21870;42.812;74.628;2022-11-20T06:26:36;15.20;99.90
35746;DHT22;21870;42.812;74.628;2022-11-20T06:29:02;15.60;99.90
35746;DHT22;21870;42.812;74.628;2022-11-20T06:31:28;16.00;99.90
35746;DHT22;21870;42.812;74.628;2022-11-20T06:33:55;16.30;99.90
35746;DHT22;21870;42.812;74.628;2022-11-20T06:36:22;16.40;99.90
35746;DHT22;21870;42.812;74.628;2022-11-20T06:38:48;16.60;99.90
35746;DHT22;21870;42.812;74.628;2022-11-20T06:41:17;16.50;99.90
35746;DHT22;21870;42.812;74.628;2022-11-20T06:43:43;16.70;99.90
35746;DHT22;21870;42.812;74.628;2022-11-20T06:46:11;16.60;99.90
35746;DHT22;21870;42.812;74.628;2022-11-20T06:48:38;16.60;99.90
35746;DHT22;21870;42.812;74.628;2022-11-20T06:51:06;16.60;99.90
35746;DHT22;21870;42.812;74.628;2022-11-20T06:53:33;16.70;99.90
35746;DHT22;21870;42.812;74.628;2022-11-20T06:55:59;16.80;99.90
35746;DHT22;21870;42.812;74.628;2022-11-20T06:58:30;16.80;99.90
35746;DHT22;21870;42.812;74.628;2022-11-20T07:01:05;16.70;99.90
35746;DHT22;21870;42.812;74.628;2022-11-20T07:03:31;16.40;99.90
35746;DHT22;21870;42.812;74.628;2022-11-20T07:05:58;16.20;99.90
35746;DHT22;21870;42.812;74.628;2022-11-20T07:08:26;16.10;99.90
35746;DHT22;21870;42.812;74.628;2022-11-20T07:10:52;15.90;99.90
35746;DHT22;21870;42.812;74.628;2022-11-20T07:13:18;15.90;99.90
35746;DHT22;21870;42.812;74.628;2022-11-20T07:15:44;15.70;99.90
35746;DHT22;21870;42.812;74.628;2022-11-20T07:18:10;15.50;99.90
35746;DHT22;21870;42.812;74.628;2022-11-20T07:20:36;15.40;99.90
35746;DHT22;21870;42.812;74.628;2022-11-20T07:23:02;15.30;99.90
35746;DHT22;21870;42.812;74.628;2022-11-20T07:25:28;15.30;99.90
35746;DHT22;21870;42.812;74.628;2022-11-20T07:27:59;15.30;99.90
35746;DHT22;21870;42.812;74.628;2022-11-20T07:30:29;15.40;99.90
35746;DHT22;21870;42.812;74.628;2022-11-20T07:32:56;15.70;99.90
35746;DHT22;21870;42.812;74.628;2022-11-20T07:35:24;16.00;99.90
35746;DHT22;21870;42.812;74.628;2022-11-20T07:37:50;16.10;99.90
35746;DHT22;21870;42.812;74.628;2022-11-20T07:40:17;16.00;99.90
35746;DHT22;21870;42.812;74.628;2022-11-20T07:45:16;15.70;99.90
35746;DHT22;21870;42.812;74.628;2022-11-20T07:47:42;15.70;99.90
35746;DHT22;21870;42.812;74.628;2022-11-20T07:50:08;15.60;99.90
35746;DHT22;21870;42.812;74.628;2022-11-20T07:52:34;15.60;99.90
35746;DHT22;21870;42.812;74.628;2022-11-20T07:55:01;15.60;99.90
35746;DHT22;21870;42.812;74.628;2022-11-20T07:57:27;15.70;99.90
35746;DHT22;21870;42.812;74.628;2022-11-20T07:59:53;15.70;99.90
35746;DHT22;21870;42.812;74.628;2022-11-20T08:02:19;15.90;99.90
35746;DHT22;21870;42.812;74.628;2022-11-20T08:04:45;16.10;99.90
35746;DHT22;21870;42.812;74.628;2022-11-20T08:07:11;16.30;99.90
35746;DHT22;21870;42.812;74.628;2022-11-20T08:09:37;16.20;99.90
35746;DHT22;21870;42.812;74.628;2022-11-20T08:12:03;16.10;99.90
35746;DHT22;21870;42.812;74.628;2022-11-20T08:14:47;16.00;99.90
35746;DHT22;21870;42.812;74.628;2022-11-20T08:17:13;15.80;99.90
35746;DHT22;21870;42.812;74.628;2022-11-20T08:19:39;16.00;99.90
35746;DHT22;21870;42.812;74.628;2022-11-20T08:22:05;16.10;99.90
35746;DHT22;21870;42.812;74.628;2022-11-20T08:24:31;16.10;99.90
35746;DHT22;21870;42.812;74.628;2022-11-20T08:26:58;15.90;99.90
35746;DHT22;21870;42.812;74.628;2022-11-20T08:29:26;15.60;99.90
35746;DHT22;21870;42.812;74.628;2022-11-20T08:31:52;15.60;99.90
35746;DHT22;21870;42.812;74.628;2022-11-20T08:34:18;15.40;99.90
35746;DHT22;21870;42.812;74.628;2022-11-20T08:36:45;15.30;99.90
35746;DHT22;21870;42.812;74.628;2022-11-20T08:39:12;15.10;99.90
35746;DHT22;21870;42.812;74.628;2022-11-20T08:41:38;15.10;99.90
35746;DHT22;21870;42.812;74.628;2022-11-20T08:44:06;14.90;99.90
35746;DHT22;21870;42.812;74.628;2022-11-20T08:46:36;14.70;99.90
35746;DHT22;21870;42.812;74.628;2022-11-20T08:49:10;14.60;99.90
35746;DHT22;21870;42.812;74.628;2022-11-20T08:51:37;14.70;99.90
35746;DHT22;21870;42.812;74.628;2022-11-20T08:54:04;14.70;99.90
35746;DHT22;21870;42.812;74.628;2022-11-20T08:56:30;14.70;99.90
35746;DHT22;21870;42.812;74.628;2022-11-20T08:58:56;14.60;99.90
35746;DHT22;21870;42.812;74.628;2022-11-20T09:01:25;14.60;99.90
35746;DHT22;21870;42.812;74.628;2022-11-20T09:03:51;14.50;99.90
35746;DHT22;21870;42.812;74.628;2022-11-20T09:06:17;14.50;99.90
35746;DHT22;21870;42.812;74.628;2022-11-20T09:08:44;14.40;99.90
35746;DHT22;21870;42.812;74.628;2022-11-20T09:11:11;14.30;99.90
35746;DHT22;21870;42.812;74.628;2022-11-20T09:13:37;14.20;99.90
35746;DHT22;21870;42.812;74.628;2022-11-20T09:16:06;14.10;99.90
35746;DHT22;21870;42.812;74.628;2022-11-20T09:18:33;14.00;99.90
35746;DHT22;21870;42.812;74.628;2022-11-20T09:21:04;13.90;99.90
35746;DHT22;21870;42.812;74.628;2022-11-20T09:23:37;13.80;99.90
35746;DHT22;21870;42.812;74.628;2022-11-20T09:26:13;13.80;99.90
35746;DHT22;21870;42.812;74.628;2022-11-20T09:28:40;13.70;99.90
35746;DHT22;21870;42.812;74.628;2022-11-20T09:31:08;13.60;99.90
35746;DHT22;21870;42.812;74.628;2022-11-20T09:33:35;13.60;99.90
35746;DHT22;21870;42.812;74.628;2022-11-20T09:36:01;13.60;99.90
35746;DHT22;21870;42.812;74.628;2022-11-20T09:38:27;13.60;99.90
35746;DHT22;21870;42.812;74.628;2022-11-20T09:41:05;13.60;99.90
35746;DHT22;21870;42.812;74.628;2022-11-20T09:46:40;13.60;99.90
35746;DHT22;21870;42.812;74.628;2022-11-20T09:54:21;13.50;99.90
35746;DHT22;21870;42.812;74.628;2022-11-20T09:56:59;13.50;99.90
35746;DHT22;21870;42.812;74.628;2022-11-20T09:59:40;13.40;99.90
35746;DHT22;21870;42.812;74.628;2022-11-20T10:05:15;13.40;99.90
35746;DHT22;21870;42.812;74.628;2022-11-20T10:10:46;13.30;99.90
35746;DHT22;21870;42.812;74.628;2022-11-20T10:13:45;13.30;99.90
35746;DHT22;21870;42.812;74.628;2022-11-20T10:16:47;13.20;99.90
35746;DHT22;21870;42.812;74.628;2022-11-20T10:19:24;13.20;99.90
35746;DHT22;21870;42.812;74.628;2022-11-20T10:24:47;13.20;99.90
35746;DHT22;21870;42.812;74.628;2022-11-20T10:27:24;13.30;99.90
35746;DHT22;21870;42.812;74.628;2022-11-20T10:30:08;13.30;99.90
35746;DHT22;21870;42.812;74.628;2022-11-20T10:32:43;13.20;99.90
35746;DHT22;21870;42.812;74.628;2022-11-20T10:37:58;13.10;99.90
35746;DHT22;21870;42.812;74.628;2022-11-20T10:43:11;13.00;99.90
35746;DHT22;21870;42.812;74.628;2022-11-20T10:48:23;13.10;99.90
35746;DHT22;21870;42.812;74.628;2022-11-20T10:59:21;12.80;99.90
35746;DHT22;21870;42.812;74.628;2022-11-20T11:01:51;12.80;99.90
35746;DHT22;21870;42.812;74.628;2022-11-20T11:04:49;12.80;99.90
35746;DHT22;21870;42.812;74.628;2022-11-20T11:07:34;12.80;99.90
35746;DHT22;21870;42.812;74.628;2022-11-20T11:10:18;12.70;99.90
35746;DHT22;21870;42.812;74.628;2022-11-20T11:12:46;12.60;99.90
35746;DHT22;21870;42.812;74.628;2022-11-20T11:15:37;12.60;99.90
35746;DHT22;21870;42.812;74.628;2022-11-20T11:18:10;12.50;99.90
35746;DHT22;21870;42.812;74.628;2022-11-20T11:20:36;12.50;99.90
35746;DHT22;21870;42.812;74.628;2022-11-20T11:23:03;12.50;99.90
35746;DHT22;21870;42.812;74.628;2022-11-20T11:25:35;12.40;99.90
35746;DHT22;21870;42.812;74.628;2022-11-20T11:28:19;12.40;99.90
35746;DHT22;21870;42.812;74.628;2022-11-20T11:30:46;12.30;99.90
35746;DHT22;21870;42.812;74.628;2022-11-20T11:33:32;12.30;99.90
35746;DHT22;21870;42.812;74.628;2022-11-20T11:36:04;12.20;99.90
35746;DHT22;21870;42.812;74.628;2022-11-20T11:38:43;12.10;99.90
35746;DHT22;21870;42.812;74.628;2022-11-20T11:41:22;12.00;99.90
35746;DHT22;21870;42.812;74.628;2022-11-20T11:44:43;11.90;99.90
35746;DHT22;21870;42.812;74.628;2022-11-20T11:47:25;11.80;99.90
35746;DHT22;21870;42.812;74.628;2022-11-20T11:50:15;11.60;99.90
35746;DHT22;21870;42.812;74.628;2022-11-20T11:53:02;11.60;99.90
35746;DHT22;21870;42.812;74.628;2022-11-20T11:56:08;11.50;99.90
35746;DHT22;21870;42.812;74.628;2022-11-20T11:58:34;11.40;99.90
35746;DHT22;21870;42.812;74.628;2022-11-20T12:06:32;11.20;99.90
35746;DHT22;21870;42.812;74.628;2022-11-20T12:09:09;11.20;99.90
35746;DHT22;21870;42.812;74.628;2022-11-20T12:11:43;11.20;99.90
35746;DHT22;21870;42.812;74.628;2022-11-20T12:14:27;11.20;99.90
35746;DHT22;21870;42.812;74.628;2022-11-20T12:16:57;11.10;99.90
35746;DHT22;21870;42.812;74.628;2022-11-20T12:19:31;11.10;99.90
35746;DHT22;21870;42.812;74.628;2022-11-20T12:25:54;11.10;99.90
35746;DHT22;21870;42.812;74.628;2022-11-20T12:30:47;11.20;99.90
35746;DHT22;21870;42.812;74.628;2022-11-20T12:41:43;11.10;99.90
35746;DHT22;21870;42.812;74.628;2022-11-20T12:55:56;10.80;99.90
35746;DHT22;21870;42.812;74.628;2022-11-20T12:59:23;10.80;99.90
35746;DHT22;21870;42.812;74.628;2022-11-20T13:01:49;10.80;99.90
35746;DHT22;21870;42.812;74.628;2022-11-20T13:07:20;10.60;99.90
35746;DHT22;21870;42.812;74.628;2022-11-20T13:09:49;10.60;99.90
35746;DHT22;21870;42.812;74.628;2022-11-20T13:12:30;10.50;99.90
35746;DHT22;21870;42.812;74.628;2022-11-20T13:17:39;10.50;99.90
35746;DHT22;21870;42.812;74.628;2022-11-20T13:20:15;10.40;99.90
35746;DHT22;21870;42.812;74.628;2022-11-20T13:27:49;10.30;99.90
35746;DHT22;21870;42.812;74.628;2022-11-20T13:30:18;10.30;99.90
35746;DHT22;21870;42.812;74.628;2022-11-20T13:32:49;10.20;99.90
35746;DHT22;21870;42.812;74.628;2022-11-20T13:35:25;10.20;99.90
35746;DHT22;21870;42.812;74.628;2022-11-20T13:38:03;10.20;99.90
35746;DHT22;21870;42.812;74.628;2022-11-20T13:40:29;10.10;99.90
35746;DHT22;21870;42.812;74.628;2022-11-20T13:45:41;10.00;99.90
35746;DHT22;21870;42.812;74.628;2022-11-20T13:56:59;10.00;99.90
35746;DHT22;21870;42.812;74.628;2022-11-20T14:02:02;10.00;99.90
35746;DHT22;21870;42.812;74.628;2022-11-20T14:04:36;10.00;99.90
35746;DHT22;21870;42.812;74.628;2022-11-20T14:07:05;10.00;99.90
35746;DHT22;21870;42.812;74.628;2022-11-20T14:09:33;10.00;99.90
35746;DHT22;21870;42.812;74.628;2022-11-20T14:12:00;10.00;99.90
35746;DHT22;21870;42.812;74.628;2022-11-20T14:14:29;9.90;99.90
35746;DHT22;21870;42.812;74.628;2022-11-20T14:17:06;9.90;99.90
35746;DHT22;21870;42.812;74.628;2022-11-20T14:19:33;10.00;99.90
35746;DHT22;21870;42.812;74.628;2022-11-20T14:22:17;9.90;99.90
35746;DHT22;21870;42.812;74.628;2022-11-20T14:24:44;9.90;99.90
35746;DHT22;21870;42.812;74.628;2022-11-20T14:27:20;9.90;99.90
35746;DHT22;21870;42.812;74.628;2022-11-20T14:29:49;9.90;99.90
35746;DHT22;21870;42.812;74.628;2022-11-20T14:32:17;9.90;99.90
35746;DHT22;21870;42.812;74.628;2022-11-20T14:34:47;9.80;99.90
35746;DHT22;21870;42.812;74.628;2022-11-20T14:37:23;9.80;99.90
35746;DHT22;21870;42.812;74.628;2022-11-20T14:39:55;9.80;99.90
35746;DHT22;21870;42.812;74.628;2022-11-20T14:42:24;9.80;99.90
35746;DHT22;21870;42.812;74.628;2022-11-20T14:44:51;9.80;99.90
35746;DHT22;21870;42.812;74.628;2022-11-20T14:47:25;9.70;99.90
35746;DHT22;21870;42.812;74.628;2022-11-20T14:49:53;9.70;99.90
35746;DHT22;21870;42.812;74.628;2022-11-20T14:52:24;9.70;99.90
35746;DHT22;21870;42.812;74.628;2022-11-20T14:54:57;9.70;99.90
35746;DHT22;21870;42.812;74.628;2022-11-20T15:00:19;9.70;99.90
35746;DHT22;21870;42.812;74.628;2022-11-20T15:02:48;9.80;99.90
35746;DHT22;21870;42.812;74.628;2022-11-20T15:05:17;9.70;99.90
35746;DHT22;21870;42.812;74.628;2022-11-20T15:07:46;9.60;99.90
35746;DHT22;21870;42.812;74.628;2022-11-20T15:10:24;9.70;99.90
35746;DHT22;21870;42.812;74.628;2022-11-20T15:12:53;9.70;99.90
35746;DHT22;21870;42.812;74.628;2022-11-20T15:15:31;9.70;99.90
35746;DHT22;21870;42.812;74.628;2022-11-20T15:17:58;9.70;99.90
35746;DHT22;21870;42.812;74.628;2022-11-20T15:20:28;9.70;99.90
35746;DHT22;21870;42.812;74.628;2022-11-20T15:22:55;9.70;99.90
35746;DHT22;21870;42.812;74.628;2022-11-20T15:25:22;9.60;99.90
35746;DHT22;21870;42.812;74.628;2022-11-20T15:27:53;9.60;99.90
35746;DHT22;21870;42.812;74.628;2022-11-20T15:30:21;9.60;99.90
35746;DHT22;21870;42.812;74.628;2022-11-20T15:32:47;9.60;99.90
35746;DHT22;21870;42.812;74.628;2022-11-20T15:35:14;9.50;99.90
35746;DHT22;21870;42.812;74.628;2022-11-20T15:37:41;9.30;99.90
35746;DHT22;21870;42.812;74.628;2022-11-20T15:40:08;9.00;99.90
35746;DHT22;21870;42.812;74.628;2022-11-20T15:42:34;8.70;99.90
35746;DHT22;21870;42.812;74.628;2022-11-20T15:45:01;8.50;99.90
35746;DHT22;21870;42.812;74.628;2022-11-20T15:47:32;8.40;99.90
35746;DHT22;21870;42.812;74.628;2022-11-20T15:49:59;8.30;99.90
35746;DHT22;21870;42.812;74.628;2022-11-20T15:52:26;8.30;99.90
35746;DHT22;21870;42.812;74.628;2022-11-20T15:54:52;8.20;99.90
35746;DHT22;21870;42.812;74.628;2022-11-20T15:57:18;8.10;99.90
35746;DHT22;21870;42.812;74.628;2022-11-20T15:59:44;8.10;99.90
35746;DHT22;21870;42.812;74.628;2022-11-20T16:02:11;8.00;99.90
35746;DHT22;21870;42.812;74.628;2022-11-20T16:04:38;8.00;99.90
35746;DHT22;21870;42.812;74.628;2022-11-20T16:07:04;7.90;99.90
35746;DHT22;21870;42.812;74.628;2022-11-20T16:09:30;7.90;99.90
35746;DHT22;21870;42.812;74.628;2022-11-20T16:11:58;7.90;99.90
35746;DHT22;21870;42.812;74.628;2022-11-20T16:14:30;7.80;99.90
35746;DHT22;21870;42.812;74.628;2022-11-20T16:17:15;7.80;99.90
35746;DHT22;21870;42.812;74.628;2022-11-20T16:20:01;7.90;99.90
35746;DHT22;21870;42.812;74.628;2022-11-20T16:22:27;7.80;99.90
35746;DHT22;21870;42.812;74.628;2022-11-20T16:24:53;7.70;99.90
35746;DHT22;21870;42.812;74.628;2022-11-20T16:27:19;7.70;99.90
35746;DHT22;21870;42.812;74.628;2022-11-20T16:29:45;7.80;99.90
35746;DHT22;21870;42.812;74.628;2022-11-20T16:32:14;7.80;99.90
35746;DHT22;21870;42.812;74.628;2022-11-20T16:34:40;7.70;99.90
35746;DHT22;21870;42.812;74.628;2022-11-20T16:37:06;7.70;99.90
35746;DHT22;21870;42.812;74.628;2022-11-20T16:39:32;7.70;99.90
35746;DHT22;21870;42.812;74.628;2022-11-20T16:41:58;7.70;99.90
35746;DHT22;21870;42.812;74.628;2022-11-20T16:44:29;7.70;99.90
35746;DHT22;21870;42.812;74.628;2022-11-20T16:46:55;7.70;99.90
35746;DHT22;21870;42.812;74.628;2022-11-20T16:49:21;7.70;99.90
35746;DHT22;21870;42.812;74.628;2022-11-20T16:51:47;7.70;99.90
35746;DHT22;21870;42.812;74.628;2022-11-20T16:54:13;7.70;99.90
35746;DHT22;21870;42.812;74.628;2022-11-20T16:56:42;7.70;99.90
35746;DHT22;21870;42.812;74.628;2022-11-20T16:59:08;7.70;99.90
35746;DHT22;21870;42.812;74.628;2022-11-20T17:01:35;7.70;99.90
35746;DHT22;21870;42.812;74.628;2022-11-20T17:04:05;7.80;99.90
35746;DHT22;21870;42.812;74.628;2022-11-20T17:06:34;7.70;99.90
35746;DHT22;21870;42.812;74.628;2022-11-20T17:09:00;7.70;99.90
35746;DHT22;21870;42.812;74.628;2022-11-20T17:11:27;7.70;99.90
35746;DHT22;21870;42.812;74.628;2022-11-20T17:13:57;7.80;99.90
35746;DHT22;21870;42.812;74.628;2022-11-20T17:16:27;7.80;99.90
35746;DHT22;21870;42.812;74.628;2022-11-20T17:18:55;7.80;99.90
35746;DHT22;21870;42.812;74.628;2022-11-20T17:21:21;7.80;99.90